Accueil
METAR-TAF:

METAR-TAF

Aéroports :

Bentonville Municipal Airport/Louise M Thaden Field

Bentonville, Arkansas, États-Unis

latitude: 36-21N, longitude: 094-13W, altitude: 395 m

Observation

Le bulletin a été fait il y a 11 minutes, à 16:56 UTC
Vent 3 kt de direction variable
Température 6°C
Humidité 56%
Pression 1028 hPa
Visibilité: 16.1 km
Ciel clair

METAR: KVBT 141656Z AUTO VRB03KT 10SM CLR 06/M02 A3035 RMK AO2 SLP287 T00611017 TSNO

Heure: 11:07 (17:07 UTC)


TAF: absent

Observations et prévisions météorologiques de plus de 4000 aéroports (messages METAR et TAF).

Les stations disponibles sont représentées par des disques jaunes et rouges sur la carte.

Passer la souris dessus pour voir le nom de la station.

Cliquer dessus pour voir les observations et prévisions météorologiques.

Pour changer de carte: cliquez sur les boutons verts avec une croix noire pour zoomer, sur le bouton vert avec un tiret pour effectuer un zoom arrière, ou sur les flèches vertes pour les cartes adjacentes.


METAR-TAF: